sensor_id;sensor_type;location;lat;lon;timestamp;P1;durP1;ratioP1;P2;durP2;ratioP2
71965;SDS011;59836;52.132;5.442;2023-09-12T00:01:27;31.95;;;18.63;;
71965;SDS011;59836;52.132;5.442;2023-09-12T00:04:01;31.45;;;17.83;;
71965;SDS011;59836;52.132;5.442;2023-09-12T00:06:28;32.47;;;19.43;;
71965;SDS011;59836;52.132;5.442;2023-09-12T00:08:57;33.30;;;18.85;;
71965;SDS011;59836;52.132;5.442;2023-09-12T00:11:23;31.40;;;18.35;;
71965;SDS011;59836;52.132;5.442;2023-09-12T00:13:53;33.28;;;18.17;;
71965;SDS011;59836;52.132;5.442;2023-09-12T00:16:19;33.65;;;18.55;;
71965;SDS011;59836;52.132;5.442;2023-09-12T00:18:46;28.43;;;17.33;;
71965;SDS011;59836;52.132;5.442;2023-09-12T00:21:12;29.02;;;17.77;;
71965;SDS011;59836;52.132;5.442;2023-09-12T00:29:13;30.17;;;17.98;;
71965;SDS011;59836;52.132;5.442;2023-09-12T00:34:16;28.15;;;17.00;;
71965;SDS011;59836;52.132;5.442;2023-09-12T00:36:43;29.52;;;17.85;;
71965;SDS011;59836;52.132;5.442;2023-09-12T00:39:10;27.55;;;16.77;;
71965;SDS011;59836;52.132;5.442;2023-09-12T00:41:42;27.90;;;16.73;;
71965;SDS011;59836;52.132;5.442;2023-09-12T00:44:09;33.13;;;17.90;;
71965;SDS011;59836;52.132;5.442;2023-09-12T00:49:38;29.50;;;16.40;;
71965;SDS011;59836;52.132;5.442;2023-09-12T00:52:06;29.80;;;17.70;;
71965;SDS011;59836;52.132;5.442;2023-09-12T01:00:16;25.77;;;15.50;;
71965;SDS011;59836;52.132;5.442;2023-09-12T01:05:48;28.48;;;17.13;;
71965;SDS011;59836;52.132;5.442;2023-09-12T01:08:15;29.92;;;18.15;;
71965;SDS011;59836;52.132;5.442;2023-09-12T01:10:58;28.23;;;17.70;;
71965;SDS011;59836;52.132;5.442;2023-09-12T01:13:34;28.92;;;16.95;;
71965;SDS011;59836;52.132;5.442;2023-09-12T01:16:00;27.40;;;17.33;;
71965;SDS011;59836;52.132;5.442;2023-09-12T01:18:27;26.35;;;16.17;;
71965;SDS011;59836;52.132;5.442;2023-09-12T01:27:18;27.38;;;16.27;;
71965;SDS011;59836;52.132;5.442;2023-09-12T01:32:42;26.05;;;16.10;;
71965;SDS011;59836;52.132;5.442;2023-09-12T01:35:24;23.23;;;15.32;;
71965;SDS011;59836;52.132;5.442;2023-09-12T01:37:50;24.57;;;15.40;;
71965;SDS011;59836;52.132;5.442;2023-09-12T01:40:24;24.13;;;14.15;;
71965;SDS011;59836;52.132;5.442;2023-09-12T01:46:02;25.85;;;16.20;;
71965;SDS011;59836;52.132;5.442;2023-09-12T01:48:31;23.73;;;15.55;;
71965;SDS011;59836;52.132;5.442;2023-09-12T01:51:03;24.60;;;15.03;;
71965;SDS011;59836;52.132;5.442;2023-09-12T01:53:31;25.23;;;15.68;;
71965;SDS011;59836;52.132;5.442;2023-09-12T01:55:59;24.55;;;16.25;;
71965;SDS011;59836;52.132;5.442;2023-09-12T01:58:26;24.65;;;15.93;;
71965;SDS011;59836;52.132;5.442;2023-09-12T02:00:59;23.98;;;15.23;;
71965;SDS011;59836;52.132;5.442;2023-09-12T02:06:29;21.77;;;14.77;;
71965;SDS011;59836;52.132;5.442;2023-09-12T02:09:00;21.83;;;15.10;;
71965;SDS011;59836;52.132;5.442;2023-09-12T02:11:27;24.60;;;15.73;;
71965;SDS011;59836;52.132;5.442;2023-09-12T02:13:56;21.75;;;14.25;;
71965;SDS011;59836;52.132;5.442;2023-09-12T02:19:25;17.00;;;12.52;;
71965;SDS011;59836;52.132;5.442;2023-09-12T02:25:19;16.42;;;13.30;;
71965;SDS011;59836;52.132;5.442;2023-09-12T02:27:45;19.63;;;13.98;;
71965;SDS011;59836;52.132;5.442;2023-09-12T02:30:21;18.40;;;13.60;;
71965;SDS011;59836;52.132;5.442;2023-09-12T02:32:50;17.55;;;12.85;;
71965;SDS011;59836;52.132;5.442;2023-09-12T02:35:16;17.75;;;13.80;;
71965;SDS011;59836;52.132;5.442;2023-09-12T02:37:46;20.88;;;13.40;;
71965;SDS011;59836;52.132;5.442;2023-09-12T02:42:53;17.43;;;12.50;;
71965;SDS011;59836;52.132;5.442;2023-09-12T02:45:19;15.68;;;11.52;;
71965;SDS011;59836;52.132;5.442;2023-09-12T02:47:55;15.30;;;12.82;;
71965;SDS011;59836;52.132;5.442;2023-09-12T02:50:21;17.98;;;13.38;;
71965;SDS011;59836;52.132;5.442;2023-09-12T02:52:48;20.33;;;13.23;;
71965;SDS011;59836;52.132;5.442;2023-09-12T02:55:21;17.67;;;11.27;;
71965;SDS011;59836;52.132;5.442;2023-09-12T02:58:00;17.23;;;11.88;;
71965;SDS011;59836;52.132;5.442;2023-09-12T03:03:36;14.13;;;11.13;;
71965;SDS011;59836;52.132;5.442;2023-09-12T03:06:03;18.88;;;11.57;;
71965;SDS011;59836;52.132;5.442;2023-09-12T03:11:31;15.98;;;11.68;;
71965;SDS011;59836;52.132;5.442;2023-09-12T03:13:57;15.02;;;11.65;;
71965;SDS011;59836;52.132;5.442;2023-09-12T03:16:41;13.70;;;11.05;;
71965;SDS011;59836;52.132;5.442;2023-09-12T03:19:08;14.70;;;11.07;;
71965;SDS011;59836;52.132;5.442;2023-09-12T03:21:34;14.33;;;11.03;;
71965;SDS011;59836;52.132;5.442;2023-09-12T03:24:01;15.30;;;11.38;;
71965;SDS011;59836;52.132;5.442;2023-09-12T03:26:37;13.70;;;10.80;;
71965;SDS011;59836;52.132;5.442;2023-09-12T03:34:19;15.20;;;10.70;;
71965;SDS011;59836;52.132;5.442;2023-09-12T03:36:51;14.55;;;10.90;;
71965;SDS011;59836;52.132;5.442;2023-09-12T03:39:25;12.77;;;10.32;;
71965;SDS011;59836;52.132;5.442;2023-09-12T03:41:53;14.35;;;10.70;;
71965;SDS011;59836;52.132;5.442;2023-09-12T03:44:19;13.23;;;10.68;;
71965;SDS011;59836;52.132;5.442;2023-09-12T03:46:46;12.17;;;9.93;;
71965;SDS011;59836;52.132;5.442;2023-09-12T03:52:11;12.75;;;10.30;;
71965;SDS011;59836;52.132;5.442;2023-09-12T03:54:39;13.15;;;10.45;;
71965;SDS011;59836;52.132;5.442;2023-09-12T03:57:05;13.32;;;10.27;;
71965;SDS011;59836;52.132;5.442;2023-09-12T03:59:38;13.90;;;10.87;;
71965;SDS011;59836;52.132;5.442;2023-09-12T04:02:08;14.07;;;10.82;;
71965;SDS011;59836;52.132;5.442;2023-09-12T04:04:35;16.88;;;11.38;;
71965;SDS011;59836;52.132;5.442;2023-09-12T04:07:01;13.88;;;10.60;;
71965;SDS011;59836;52.132;5.442;2023-09-12T04:09:32;13.90;;;10.25;;
71965;SDS011;59836;52.132;5.442;2023-09-12T04:12:04;15.13;;;10.63;;
71965;SDS011;59836;52.132;5.442;2023-09-12T04:14:33;15.88;;;11.68;;
71965;SDS011;59836;52.132;5.442;2023-09-12T04:17:00;15.68;;;11.32;;
71965;SDS011;59836;52.132;5.442;2023-09-12T04:19:31;13.35;;;10.38;;
71965;SDS011;59836;52.132;5.442;2023-09-12T04:22:10;15.02;;;10.85;;
71965;SDS011;59836;52.132;5.442;2023-09-12T04:24:37;14.53;;;10.27;;
71965;SDS011;59836;52.132;5.442;2023-09-12T04:35:00;18.58;;;12.05;;
71965;SDS011;59836;52.132;5.442;2023-09-12T04:45:38;15.82;;;10.65;;
71965;SDS011;59836;52.132;5.442;2023-09-12T04:54:00;18.77;;;11.50;;
71965;SDS011;59836;52.132;5.442;2023-09-12T04:56:26;20.67;;;13.07;;
71965;SDS011;59836;52.132;5.442;2023-09-12T04:58:55;21.80;;;13.63;;
71965;SDS011;59836;52.132;5.442;2023-09-12T05:01:26;20.63;;;13.63;;
71965;SDS011;59836;52.132;5.442;2023-09-12T05:03:53;20.07;;;13.30;;
71965;SDS011;59836;52.132;5.442;2023-09-12T05:06:20;19.48;;;12.68;;
71965;SDS011;59836;52.132;5.442;2023-09-12T05:09:00;19.75;;;13.35;;
71965;SDS011;59836;52.132;5.442;2023-09-12T05:11:27;20.05;;;13.25;;
71965;SDS011;59836;52.132;5.442;2023-09-12T05:13:53;18.75;;;12.98;;
71965;SDS011;59836;52.132;5.442;2023-09-12T05:16:32;19.13;;;12.40;;
71965;SDS011;59836;52.132;5.442;2023-09-12T05:19:05;22.23;;;13.98;;
71965;SDS011;59836;52.132;5.442;2023-09-12T05:21:32;19.67;;;13.52;;
71965;SDS011;59836;52.132;5.442;2023-09-12T05:24:14;19.25;;;13.25;;
71965;SDS011;59836;52.132;5.442;2023-09-12T05:26:44;17.27;;;11.60;;
71965;SDS011;59836;52.132;5.442;2023-09-12T05:29:11;18.03;;;12.30;;
71965;SDS011;59836;52.132;5.442;2023-09-12T05:31:43;21.42;;;13.45;;
71965;SDS011;59836;52.132;5.442;2023-09-12T05:34:09;20.73;;;13.00;;
71965;SDS011;59836;52.132;5.442;2023-09-12T05:36:36;18.60;;;12.63;;
71965;SDS011;59836;52.132;5.442;2023-09-12T05:39:02;20.10;;;13.23;;
71965;SDS011;59836;52.132;5.442;2023-09-12T05:44:18;21.42;;;13.43;;
71965;SDS011;59836;52.132;5.442;2023-09-12T05:46:45;23.10;;;14.60;;
71965;SDS011;59836;52.132;5.442;2023-09-12T05:49:13;21.35;;;14.18;;
71965;SDS011;59836;52.132;5.442;2023-09-12T05:51:45;24.65;;;13.85;;
71965;SDS011;59836;52.132;5.442;2023-09-12T05:54:12;22.10;;;13.60;;
71965;SDS011;59836;52.132;5.442;2023-09-12T05:56:40;23.63;;;13.93;;
71965;SDS011;59836;52.132;5.442;2023-09-12T05:59:11;25.15;;;15.70;;
71965;SDS011;59836;52.132;5.442;2023-09-12T06:01:37;26.77;;;14.60;;
71965;SDS011;59836;52.132;5.442;2023-09-12T06:04:05;25.80;;;15.18;;
71965;SDS011;59836;52.132;5.442;2023-09-12T06:06:32;26.00;;;14.93;;
71965;SDS011;59836;52.132;5.442;2023-09-12T06:11:58;27.73;;;15.23;;
71965;SDS011;59836;52.132;5.442;2023-09-12T06:14:24;25.17;;;15.07;;
71965;SDS011;59836;52.132;5.442;2023-09-12T06:16:52;26.55;;;16.05;;
71965;SDS011;59836;52.132;5.442;2023-09-12T06:19:18;26.03;;;15.77;;
71965;SDS011;59836;52.132;5.442;2023-09-12T06:24:36;26.40;;;16.15;;
71965;SDS011;59836;52.132;5.442;2023-09-12T06:27:05;25.90;;;15.50;;
71965;SDS011;59836;52.132;5.442;2023-09-12T06:29:32;25.63;;;15.25;;
71965;SDS011;59836;52.132;5.442;2023-09-12T06:32:08;28.10;;;16.67;;
71965;SDS011;59836;52.132;5.442;2023-09-12T06:37:21;28.25;;;16.27;;
71965;SDS011;59836;52.132;5.442;2023-09-12T06:39:58;28.83;;;16.10;;
71965;SDS011;59836;52.132;5.442;2023-09-12T06:45:23;33.03;;;17.83;;
71965;SDS011;59836;52.132;5.442;2023-09-12T06:47:51;30.60;;;17.40;;
71965;SDS011;59836;52.132;5.442;2023-09-12T06:50:18;32.38;;;17.70;;
71965;SDS011;59836;52.132;5.442;2023-09-12T06:52:44;33.28;;;18.20;;
71965;SDS011;59836;52.132;5.442;2023-09-12T06:55:11;34.80;;;17.80;;
71965;SDS011;59836;52.132;5.442;2023-09-12T06:57:37;32.20;;;18.70;;
71965;SDS011;59836;52.132;5.442;2023-09-12T07:00:04;38.67;;;19.02;;
71965;SDS011;59836;52.132;5.442;2023-09-12T07:02:44;39.97;;;20.83;;
71965;SDS011;59836;52.132;5.442;2023-09-12T07:05:28;34.88;;;18.50;;
71965;SDS011;59836;52.132;5.442;2023-09-12T07:07:56;37.67;;;19.95;;
71965;SDS011;59836;52.132;5.442;2023-09-12T07:10:24;35.50;;;18.77;;
71965;SDS011;59836;52.132;5.442;2023-09-12T07:12:54;35.78;;;19.65;;
71965;SDS011;59836;52.132;5.442;2023-09-12T07:18:11;36.13;;;19.08;;
71965;SDS011;59836;52.132;5.442;2023-09-12T07:20:38;39.03;;;20.73;;
71965;SDS011;59836;52.132;5.442;2023-09-12T07:23:05;36.53;;;20.23;;
71965;SDS011;59836;52.132;5.442;2023-09-12T07:31:05;41.15;;;20.83;;
71965;SDS011;59836;52.132;5.442;2023-09-12T07:33:32;43.83;;;21.00;;
71965;SDS011;59836;52.132;5.442;2023-09-12T07:35:59;39.23;;;19.97;;
71965;SDS011;59836;52.132;5.442;2023-09-12T07:38:38;40.00;;;20.30;;
71965;SDS011;59836;52.132;5.442;2023-09-12T07:43:52;35.58;;;19.17;;
71965;SDS011;59836;52.132;5.442;2023-09-12T07:46:32;40.20;;;19.25;;
71965;SDS011;59836;52.132;5.442;2023-09-12T07:48:59;39.53;;;19.47;;
71965;SDS011;59836;52.132;5.442;2023-09-12T07:51:25;37.75;;;20.55;;
71965;SDS011;59836;52.132;5.442;2023-09-12T07:53:52;34.47;;;19.20;;
71965;SDS011;59836;52.132;5.442;2023-09-12T07:56:21;38.13;;;19.67;;
71965;SDS011;59836;52.132;5.442;2023-09-12T07:58:49;36.13;;;19.60;;
71965;SDS011;59836;52.132;5.442;2023-09-12T08:01:16;39.27;;;19.30;;
71965;SDS011;59836;52.132;5.442;2023-09-12T08:03:47;35.28;;;18.45;;
71965;SDS011;59836;52.132;5.442;2023-09-12T08:06:14;37.75;;;18.60;;
71965;SDS011;59836;52.132;5.442;2023-09-12T08:08:40;33.53;;;18.48;;
71965;SDS011;59836;52.132;5.442;2023-09-12T08:11:10;33.65;;;18.42;;
71965;SDS011;59836;52.132;5.442;2023-09-12T08:13:45;35.37;;;17.40;;
71965;SDS011;59836;52.132;5.442;2023-09-12T08:16:16;36.15;;;17.20;;
71965;SDS011;59836;52.132;5.442;2023-09-12T08:18:43;30.90;;;17.38;;
71965;SDS011;59836;52.132;5.442;2023-09-12T08:21:14;37.00;;;17.70;;
71965;SDS011;59836;52.132;5.442;2023-09-12T08:23:41;35.35;;;17.52;;
71965;SDS011;59836;52.132;5.442;2023-09-12T08:26:08;36.17;;;17.63;;
71965;SDS011;59836;52.132;5.442;2023-09-12T08:28:35;32.92;;;17.83;;
71965;SDS011;59836;52.132;5.442;2023-09-12T08:34:03;36.20;;;18.58;;
71965;SDS011;59836;52.132;5.442;2023-09-12T08:36:31;34.58;;;18.17;;
71965;SDS011;59836;52.132;5.442;2023-09-12T08:38:57;36.13;;;18.43;;
71965;SDS011;59836;52.132;5.442;2023-09-12T08:41:33;34.20;;;17.13;;
71965;SDS011;59836;52.132;5.442;2023-09-12T08:44:01;33.72;;;17.50;;
71965;SDS011;59836;52.132;5.442;2023-09-12T08:49:04;35.05;;;18.35;;
71965;SDS011;59836;52.132;5.442;2023-09-12T08:51:32;33.60;;;16.97;;
71965;SDS011;59836;52.132;5.442;2023-09-12T08:53:59;34.10;;;16.80;;
71965;SDS011;59836;52.132;5.442;2023-09-12T08:56:28;29.77;;;16.17;;
71965;SDS011;59836;52.132;5.442;2023-09-12T08:58:54;29.40;;;16.73;;
71965;SDS011;59836;52.132;5.442;2023-09-12T09:01:21;31.90;;;16.25;;
71965;SDS011;59836;52.132;5.442;2023-09-12T09:03:50;35.43;;;15.87;;
71965;SDS011;59836;52.132;5.442;2023-09-12T09:06:16;30.88;;;15.52;;
71965;SDS011;59836;52.132;5.442;2023-09-12T09:08:49;28.80;;;14.98;;
71965;SDS011;59836;52.132;5.442;2023-09-12T09:11:15;29.63;;;15.27;;
71965;SDS011;59836;52.132;5.442;2023-09-12T09:17:28;27.20;;;14.70;;
71965;SDS011;59836;52.132;5.442;2023-09-12T09:19:59;32.05;;;15.20;;
71965;SDS011;59836;52.132;5.442;2023-09-12T09:22:25;28.15;;;16.02;;
71965;SDS011;59836;52.132;5.442;2023-09-12T09:27:39;27.67;;;15.25;;
71965;SDS011;59836;52.132;5.442;2023-09-12T09:33:11;27.92;;;15.13;;
71965;SDS011;59836;52.132;5.442;2023-09-12T09:35:42;29.33;;;15.88;;
71965;SDS011;59836;52.132;5.442;2023-09-12T09:38:15;28.85;;;16.00;;
71965;SDS011;59836;52.132;5.442;2023-09-12T09:40:47;28.60;;;16.27;;
71965;SDS011;59836;52.132;5.442;2023-09-12T09:43:18;29.13;;;15.33;;
71965;SDS011;59836;52.132;5.442;2023-09-12T09:45:46;30.58;;;16.65;;
71965;SDS011;59836;52.132;5.442;2023-09-12T09:48:23;31.50;;;17.63;;
71965;SDS011;59836;52.132;5.442;2023-09-12T09:50:53;36.63;;;18.83;;
71965;SDS011;59836;52.132;5.442;2023-09-12T09:53:26;35.47;;;19.15;;
71965;SDS011;59836;52.132;5.442;2023-09-12T09:58:49;34.67;;;18.70;;
71965;SDS011;59836;52.132;5.442;2023-09-12T10:04:15;35.30;;;18.00;;
71965;SDS011;59836;52.132;5.442;2023-09-12T10:06:57;34.70;;;18.48;;
71965;SDS011;59836;52.132;5.442;2023-09-12T10:09:29;33.20;;;17.17;;
71965;SDS011;59836;52.132;5.442;2023-09-12T10:12:01;33.55;;;18.45;;
71965;SDS011;59836;52.132;5.442;2023-09-12T10:17:29;33.30;;;19.10;;
71965;SDS011;59836;52.132;5.442;2023-09-12T10:20:03;29.75;;;17.08;;
71965;SDS011;59836;52.132;5.442;2023-09-12T10:25:52;32.90;;;18.35;;
71965;SDS011;59836;52.132;5.442;2023-09-12T10:28:21;38.80;;;18.98;;
71965;SDS011;59836;52.132;5.442;2023-09-12T10:30:47;32.35;;;17.65;;
71965;SDS011;59836;52.132;5.442;2023-09-12T10:36:05;30.60;;;17.37;;
71965;SDS011;59836;52.132;5.442;2023-09-12T10:38:36;34.33;;;18.65;;
71965;SDS011;59836;52.132;5.442;2023-09-12T10:41:17;30.60;;;17.23;;
71965;SDS011;59836;52.132;5.442;2023-09-12T10:43:46;31.63;;;16.63;;
71965;SDS011;59836;52.132;5.442;2023-09-12T10:46:21;28.63;;;15.52;;
71965;SDS011;59836;52.132;5.442;2023-09-12T10:48:56;35.97;;;17.47;;
71965;SDS011;59836;52.132;5.442;2023-09-12T10:51:23;27.63;;;15.35;;
71965;SDS011;59836;52.132;5.442;2023-09-12T10:53:50;29.13;;;16.25;;
71965;SDS011;59836;52.132;5.442;2023-09-12T10:56:19;29.80;;;17.08;;
71965;SDS011;59836;52.132;5.442;2023-09-12T11:01:42;27.00;;;15.03;;
71965;SDS011;59836;52.132;5.442;2023-09-12T11:06:57;26.23;;;13.48;;
71965;SDS011;59836;52.132;5.442;2023-09-12T11:09:25;28.58;;;14.77;;
71965;SDS011;59836;52.132;5.442;2023-09-12T11:12:02;26.33;;;14.40;;
71965;SDS011;59836;52.132;5.442;2023-09-12T11:14:31;25.60;;;14.37;;
71965;SDS011;59836;52.132;5.442;2023-09-12T11:19:44;26.65;;;14.75;;
71965;SDS011;59836;52.132;5.442;2023-09-12T11:24:47;23.98;;;13.95;;
71965;SDS011;59836;52.132;5.442;2023-09-12T11:27:14;25.40;;;14.27;;
71965;SDS011;59836;52.132;5.442;2023-09-12T11:29:41;26.75;;;14.70;;
71965;SDS011;59836;52.132;5.442;2023-09-12T11:32:07;26.60;;;15.30;;
71965;SDS011;59836;52.132;5.442;2023-09-12T11:34:36;24.35;;;14.13;;
71965;SDS011;59836;52.132;5.442;2023-09-12T11:37:22;26.05;;;14.18;;
71965;SDS011;59836;52.132;5.442;2023-09-12T11:39:49;23.37;;;12.93;;
71965;SDS011;59836;52.132;5.442;2023-09-12T11:42:17;30.45;;;13.75;;
71965;SDS011;59836;52.132;5.442;2023-09-12T11:44:44;28.90;;;14.82;;
71965;SDS011;59836;52.132;5.442;2023-09-12T11:47:13;23.15;;;12.45;;
71965;SDS011;59836;52.132;5.442;2023-09-12T11:49:58;23.30;;;13.63;;
71965;SDS011;59836;52.132;5.442;2023-09-12T11:52:24;24.20;;;12.97;;
71965;SDS011;59836;52.132;5.442;2023-09-12T11:54:51;23.33;;;12.90;;
71965;SDS011;59836;52.132;5.442;2023-09-12T11:57:17;21.27;;;11.75;;
71965;SDS011;59836;52.132;5.442;2023-09-12T11:59:45;19.63;;;9.98;;
71965;SDS011;59836;52.132;5.442;2023-09-12T12:02:14;23.08;;;12.15;;
71965;SDS011;59836;52.132;5.442;2023-09-12T12:04:41;20.80;;;11.83;;
71965;SDS011;59836;52.132;5.442;2023-09-12T12:07:08;17.60;;;11.23;;
71965;SDS011;59836;52.132;5.442;2023-09-12T12:09:36;20.13;;;11.68;;
71965;SDS011;59836;52.132;5.442;2023-09-12T12:12:03;22.80;;;12.25;;
71965;SDS011;59836;52.132;5.442;2023-09-12T12:14:33;16.95;;;11.43;;
71965;SDS011;59836;52.132;5.442;2023-09-12T12:17:05;23.90;;;11.50;;
71965;SDS011;59836;52.132;5.442;2023-09-12T12:22:17;20.65;;;12.07;;
71965;SDS011;59836;52.132;5.442;2023-09-12T12:24:50;18.10;;;10.98;;
71965;SDS011;59836;52.132;5.442;2023-09-12T12:27:18;19.13;;;10.85;;
71965;SDS011;59836;52.132;5.442;2023-09-12T12:29:44;16.77;;;10.20;;
71965;SDS011;59836;52.132;5.442;2023-09-12T12:32:14;17.02;;;10.30;;
71965;SDS011;59836;52.132;5.442;2023-09-12T12:37:54;15.35;;;9.57;;
71965;SDS011;59836;52.132;5.442;2023-09-12T12:40:30;14.43;;;9.05;;
71965;SDS011;59836;52.132;5.442;2023-09-12T12:43:17;13.70;;;8.57;;
71965;SDS011;59836;52.132;5.442;2023-09-12T12:45:55;14.38;;;8.88;;
71965;SDS011;59836;52.132;5.442;2023-09-12T12:48:30;12.52;;;8.05;;
71965;SDS011;59836;52.132;5.442;2023-09-12T12:50:58;14.02;;;8.25;;
71965;SDS011;59836;52.132;5.442;2023-09-12T12:53:41;14.65;;;7.82;;
71965;SDS011;59836;52.132;5.442;2023-09-12T12:56:15;14.07;;;7.53;;
71965;SDS011;59836;52.132;5.442;2023-09-12T12:58:52;11.68;;;6.90;;
71965;SDS011;59836;52.132;5.442;2023-09-12T13:01:21;11.80;;;6.55;;
71965;SDS011;59836;52.132;5.442;2023-09-12T13:03:48;9.30;;;6.00;;
71965;SDS011;59836;52.132;5.442;2023-09-12T13:06:16;9.40;;;5.95;;
71965;SDS011;59836;52.132;5.442;2023-09-12T13:08:44;14.63;;;5.90;;
71965;SDS011;59836;52.132;5.442;2023-09-12T13:11:13;6.57;;;4.53;;
71965;SDS011;59836;52.132;5.442;2023-09-12T13:13:43;7.75;;;4.40;;
71965;SDS011;59836;52.132;5.442;2023-09-12T13:16:12;5.13;;;3.65;;
71965;SDS011;59836;52.132;5.442;2023-09-12T13:18:40;5.28;;;3.30;;
71965;SDS011;59836;52.132;5.442;2023-09-12T13:21:06;5.40;;;3.13;;
71965;SDS011;59836;52.132;5.442;2023-09-12T13:23:34;5.22;;;3.83;;
71965;SDS011;59836;52.132;5.442;2023-09-12T13:26:01;5.95;;;3.75;;
71965;SDS011;59836;52.132;5.442;2023-09-12T13:28:29;6.82;;;3.90;;
71965;SDS011;59836;52.132;5.442;2023-09-12T13:30:56;4.55;;;3.55;;
71965;SDS011;59836;52.132;5.442;2023-09-12T13:33:23;6.73;;;4.43;;
71965;SDS011;59836;52.132;5.442;2023-09-12T13:35:50;7.18;;;4.50;;
71965;SDS011;59836;52.132;5.442;2023-09-12T13:38:17;10.02;;;5.47;;
71965;SDS011;59836;52.132;5.442;2023-09-12T13:40:45;7.50;;;5.10;;
71965;SDS011;59836;52.132;5.442;2023-09-12T13:43:12;9.07;;;5.40;;
71965;SDS011;59836;52.132;5.442;2023-09-12T13:45:39;6.87;;;4.77;;
71965;SDS011;59836;52.132;5.442;2023-09-12T13:48:06;5.20;;;3.72;;
71965;SDS011;59836;52.132;5.442;2023-09-12T13:50:34;4.70;;;3.70;;
71965;SDS011;59836;52.132;5.442;2023-09-12T13:53:01;4.72;;;3.17;;
71965;SDS011;59836;52.132;5.442;2023-09-12T13:55:35;6.22;;;4.18;;
71965;SDS011;59836;52.132;5.442;2023-09-12T13:58:02;6.73;;;4.30;;
71965;SDS011;59836;52.132;5.442;2023-09-12T14:00:30;7.85;;;5.32;;
71965;SDS011;59836;52.132;5.442;2023-09-12T14:03:03;6.30;;;4.63;;
71965;SDS011;59836;52.132;5.442;2023-09-12T14:05:30;8.18;;;4.43;;
71965;SDS011;59836;52.132;5.442;2023-09-12T14:07:57;8.85;;;4.75;;
71965;SDS011;59836;52.132;5.442;2023-09-12T14:10:24;9.33;;;4.80;;
71965;SDS011;59836;52.132;5.442;2023-09-12T14:13:02;9.10;;;5.57;;
71965;SDS011;59836;52.132;5.442;2023-09-12T14:15:43;8.10;;;5.97;;
71965;SDS011;59836;52.132;5.442;2023-09-12T14:18:09;11.65;;;5.90;;
71965;SDS011;59836;52.132;5.442;2023-09-12T14:20:36;11.15;;;6.82;;
71965;SDS011;59836;52.132;5.442;2023-09-12T14:23:03;11.70;;;6.73;;
71965;SDS011;59836;52.132;5.442;2023-09-12T14:25:31;11.95;;;7.63;;
71965;SDS011;59836;52.132;5.442;2023-09-12T14:27:58;12.88;;;7.10;;
71965;SDS011;59836;52.132;5.442;2023-09-12T14:30:25;14.88;;;8.18;;
71965;SDS011;59836;52.132;5.442;2023-09-12T14:33:00;12.45;;;7.35;;
71965;SDS011;59836;52.132;5.442;2023-09-12T14:35:28;13.63;;;8.03;;
71965;SDS011;59836;52.132;5.442;2023-09-12T14:37:55;11.75;;;8.00;;
71965;SDS011;59836;52.132;5.442;2023-09-12T14:40:21;13.07;;;7.70;;
71965;SDS011;59836;52.132;5.442;2023-09-12T14:42:49;12.60;;;7.25;;
71965;SDS011;59836;52.132;5.442;2023-09-12T14:45:16;15.07;;;8.95;;
71965;SDS011;59836;52.132;5.442;2023-09-12T14:47:43;14.40;;;8.63;;
71965;SDS011;59836;52.132;5.442;2023-09-12T14:50:10;16.40;;;8.20;;
71965;SDS011;59836;52.132;5.442;2023-09-12T14:52:36;14.00;;;8.63;;
71965;SDS011;59836;52.132;5.442;2023-09-12T14:55:05;12.75;;;7.55;;
71965;SDS011;59836;52.132;5.442;2023-09-12T14:57:33;13.90;;;7.45;;
71965;SDS011;59836;52.132;5.442;2023-09-12T15:00:00;13.47;;;6.73;;
71965;SDS011;59836;52.132;5.442;2023-09-12T15:05:02;10.05;;;6.53;;
71965;SDS011;59836;52.132;5.442;2023-09-12T15:07:30;11.70;;;6.90;;
71965;SDS011;59836;52.132;5.442;2023-09-12T15:09:57;10.48;;;6.07;;
71965;SDS011;59836;52.132;5.442;2023-09-12T15:12:23;10.40;;;6.47;;
71965;SDS011;59836;52.132;5.442;2023-09-12T15:14:50;11.02;;;6.20;;
71965;SDS011;59836;52.132;5.442;2023-09-12T15:17:17;10.13;;;6.05;;
71965;SDS011;59836;52.132;5.442;2023-09-12T15:19:44;12.85;;;6.80;;
71965;SDS011;59836;52.132;5.442;2023-09-12T15:22:11;10.90;;;6.40;;
71965;SDS011;59836;52.132;5.442;2023-09-12T15:24:39;12.90;;;6.93;;
71965;SDS011;59836;52.132;5.442;2023-09-12T15:27:06;12.20;;;6.72;;
71965;SDS011;59836;52.132;5.442;2023-09-12T15:29:33;11.30;;;6.72;;
71965;SDS011;59836;52.132;5.442;2023-09-12T15:31:59;10.30;;;6.40;;
71965;SDS011;59836;52.132;5.442;2023-09-12T15:34:26;10.75;;;6.25;;
71965;SDS011;59836;52.132;5.442;2023-09-12T15:37:05;10.27;;;6.33;;
71965;SDS011;59836;52.132;5.442;2023-09-12T15:39:39;9.50;;;6.18;;
71965;SDS011;59836;52.132;5.442;2023-09-12T15:42:06;10.30;;;6.20;;
71965;SDS011;59836;52.132;5.442;2023-09-12T15:44:32;9.73;;;5.93;;
71965;SDS011;59836;52.132;5.442;2023-09-12T15:46:59;10.32;;;5.47;;
71965;SDS011;59836;52.132;5.442;2023-09-12T15:49:43;5.90;;;4.20;;
71965;SDS011;59836;52.132;5.442;2023-09-12T15:52:10;5.53;;;3.42;;
71965;SDS011;59836;52.132;5.442;2023-09-12T15:54:36;3.50;;;2.85;;
71965;SDS011;59836;52.132;5.442;2023-09-12T15:57:03;3.60;;;2.35;;
71965;SDS011;59836;52.132;5.442;2023-09-12T16:02:28;2.97;;;2.10;;
71965;SDS011;59836;52.132;5.442;2023-09-12T16:04:54;4.18;;;2.20;;
71965;SDS011;59836;52.132;5.442;2023-09-12T16:07:21;3.80;;;2.80;;
71965;SDS011;59836;52.132;5.442;2023-09-12T16:09:48;4.15;;;2.55;;
71965;SDS011;59836;52.132;5.442;2023-09-12T16:12:17;4.95;;;2.40;;
71965;SDS011;59836;52.132;5.442;2023-09-12T16:14:44;5.43;;;2.63;;
71965;SDS011;59836;52.132;5.442;2023-09-12T16:17:10;5.10;;;2.70;;
71965;SDS011;59836;52.132;5.442;2023-09-12T16:19:47;5.80;;;3.15;;
71965;SDS011;59836;52.132;5.442;2023-09-12T16:22:14;3.90;;;2.67;;
71965;SDS011;59836;52.132;5.442;2023-09-12T16:24:40;4.72;;;2.80;;
71965;SDS011;59836;52.132;5.442;2023-09-12T16:27:07;4.90;;;3.53;;
71965;SDS011;59836;52.132;5.442;2023-09-12T16:29:34;7.63;;;3.33;;
71965;SDS011;59836;52.132;5.442;2023-09-12T16:32:04;5.82;;;3.97;;
71965;SDS011;59836;52.132;5.442;2023-09-12T16:34:33;6.53;;;4.25;;
71965;SDS011;59836;52.132;5.442;2023-09-12T16:37:01;6.32;;;4.53;;
71965;SDS011;59836;52.132;5.442;2023-09-12T16:39:34;7.13;;;5.23;;
71965;SDS011;59836;52.132;5.442;2023-09-12T16:42:05;7.88;;;5.82;;
71965;SDS011;59836;52.132;5.442;2023-09-12T16:44:32;9.13;;;6.22;;
71965;SDS011;59836;52.132;5.442;2023-09-12T16:46:59;9.55;;;6.03;;
71965;SDS011;59836;52.132;5.442;2023-09-12T16:49:25;10.45;;;6.20;;
71965;SDS011;59836;52.132;5.442;2023-09-12T16:51:52;11.47;;;7.03;;
71965;SDS011;59836;52.132;5.442;2023-09-12T16:54:19;10.93;;;7.80;;
71965;SDS011;59836;52.132;5.442;2023-09-12T16:56:45;11.38;;;7.90;;
71965;SDS011;59836;52.132;5.442;2023-09-12T16:59:12;12.45;;;7.25;;
71965;SDS011;59836;52.132;5.442;2023-09-12T17:01:38;13.85;;;8.00;;
71965;SDS011;59836;52.132;5.442;2023-09-12T17:04:04;13.60;;;7.73;;
71965;SDS011;59836;52.132;5.442;2023-09-12T17:06:33;12.35;;;7.50;;
71965;SDS011;59836;52.132;5.442;2023-09-12T17:09:00;12.27;;;7.95;;
71965;SDS011;59836;52.132;5.442;2023-09-12T17:11:29;15.27;;;9.10;;
71965;SDS011;59836;52.132;5.442;2023-09-12T17:13:55;15.90;;;9.23;;
71965;SDS011;59836;52.132;5.442;2023-09-12T17:16:22;15.13;;;9.20;;
71965;SDS011;59836;52.132;5.442;2023-09-12T17:18:48;13.18;;;8.40;;